Saturday, July 21, 2018, 3:37 PM EDT
Back to Local

KFOK, The Gabreski Airport

Location: East Quogue, NY, United States Lat: 40.85
Local Time: 3:37 PM EDT (19:37 GMT) Lon: -72.617
Time Zone: US/Eastern Elev: 65 ft

Show me the last for .
Show Decoded

2018-07-21 14:53 METAR KFOK 211853Z 09010G20KT 10SM SCT018 22/16 A3009 RMK AO2 SLP189 T02170156 $
                 =
2018-07-21 14:33 METAR KFOK 211833Z 10011G21KT 10SM SCT018 21/15 A3009 RMK AO2 T02110150 $ =
2018-07-21 14:01 METAR KFOK 211801Z 10011G19KT 070V130 10SM BKN019 22/16 A3011 RMK AO2 T02170156
                 $ =
2018-07-21 13:53 METAR KFOK 211753Z 10013G19KT 10SM SCT019 22/15 A3010 RMK AO2 SLP194 T02170150
                 10233 20211 58015 $ =
2018-07-21 13:38 METAR KFOK 211738Z 09012G22KT 060V130 10SM BKN019 BKN024 23/16 A3010 RMK AO2
                 T02280156 $ =
2018-07-21 12:53 METAR KFOK 211653Z 09010G20KT 10SM FEW021 23/15 A3013 RMK AO2 SLP201 T02280150 $
                 =
2018-07-21 12:00 METAR KFOK 211600Z 10013G19KT 070V130 10SM SCT026 SCT032 23/14 A3013 RMK AO2
                 T02280144 $ =
2018-07-21 11:53 METAR KFOK 211553Z 09010G17KT 050V120 10SM BKN026 BKN032 22/14 A3014 RMK AO2
                 SLP205 T02220144 $ =
2018-07-21 11:35 METAR KFOK 211535Z 09009KT 10SM BKN026 BKN031 22/14 A3014 RMK AO2 T02220144 $ =
2018-07-21 10:53 METAR KFOK 211453Z 10007G15KT 070V130 10SM CLR 23/13 A3015 RMK AO2 SLP209
                 T02280128 53006 $ =
2018-07-21 09:53 METAR KFOK 211353Z 08009G16KT 10SM CLR 22/12 A3014 RMK AO2 SLP205 T02220117 $ =
2018-07-21 08:53 METAR KFOK 211253Z 10009G15KT 060V130 10SM FEW029 22/13 A3013 RMK AO2 SLP204
                 T02170133 $ =
2018-07-21 07:53 METAR KFOK 211153Z 09006KT 10SM CLR 21/13 A3013 RMK AO2 SLP202 T02110128 10211
                 20111 56002 $ =
2018-07-21 06:53 METAR KFOK 211053Z 00000KT 10SM CLR 16/13 A3013 RMK AO2 SLP202 T01560133 $ =
2018-07-21 05:53 METAR KFOK 210953Z AUTO 08005KT 10SM CLR 11/09 A3013 RMK AO2 SLP203 T01110094 $
                 =
2018-07-21 04:53 METAR KFOK 210853Z AUTO 07003KT 10SM CLR 12/10 A3014 RMK AO2 SLP205 T01170100
                 55000 $ =
2018-07-21 03:53 METAR KFOK 210753Z AUTO 00000KT 10SM CLR 13/11 A3014 RMK AO2 SLP205 T01330111 $
                 =
2018-07-21 02:53 METAR KFOK 210653Z AUTO 00000KT 10SM CLR 13/11 A3014 RMK AO2 SLP204 T01280106 $
                 =
2018-07-21 01:53 METAR KFOK 210553Z AUTO 00000KT 10SM CLR 13/11 A3014 RMK AO2 SLP205 T01280106
                 10222 20128 58008 $ =
2018-07-21 00:53 METAR KFOK 210453Z AUTO 00000KT 10SM CLR 13/11 A3015 RMK AO2 SLP208 T01330111
                 402720111 $ =
2018-07-20 23:53 METAR KFOK 210353Z AUTO 00000KT 10SM CLR 14/12 A3016 RMK AO2 SLP213 T01440117 $
                 =
2018-07-20 22:53 METAR KFOK 210253Z 00000KT 10SM CLR 16/12 A3016 RMK AO2 SLP213 T01560122 50002 $
                 =
2018-07-20 21:53 METAR KFOK 210153Z 00000KT 10SM CLR 16/13 A3017 RMK AO2 SLP215 T01610128 $ =
2018-07-20 20:53 METAR KFOK 210053Z 00000KT 10SM CLR 18/13 A3016 RMK AO2 SLP212 T01780128 $ =
2018-07-20 19:53 METAR KFOK 202353Z 17003KT 10SM CLR 22/14 A3016 RMK AO2 SLP211 T02220139 10272
                 20222 55003 $ =
2018-07-20 18:53 METAR KFOK 202253Z 16007KT 10SM CLR 24/13 A3015 RMK AO2 SLP210 T02390128 $ =
2018-07-20 17:53 METAR KFOK 202153Z 16010KT 10SM CLR 24/13 A3016 RMK AO2 SLP212 T02440133 $ =
2018-07-20 16:53 METAR KFOK 202053Z AUTO 14007KT 10SM CLR 26/12 A3017 RMK AO2 SLP214 T02610117
                 56010 $ =
2018-07-20 15:53 METAR KFOK 201953Z 16007KT 10SM CLR 26/10 A3017 RMK AO2 SLP216 T02610100 $ =

Support USWX by starting your Amazon purchase here.